Time;durP1;ratioP1;P1;durP2;ratioP2;P2;SDS_P1;SDS_P2;PMS_P1;PMS_P2;Temp;Humidity;BMP_temperature;BMP_pressure;BME280_temperature;BME280_humidity;BME280_pressure;Samples;Min_cycle;Max_cycle;Signal;HPM_P1;HPM_P2
2023/05/19 00:03:20;;;;;;;0.10;0.10;;;;;;;13.36;100.00;102703.63;10435583;28;20107;-80
2023/05/19 00:08:23;;;;;;;0.52;0.30;;;;;;;13.05;100.00;102706.56;10434976;28;20048;-80
2023/05/19 00:13:28;;;;;;;0.20;0.13;;;;;;;13.24;100.00;102703.09;10429123;28;20051;-80
2023/05/19 00:18:29;;;;;;;0.43;0.20;;;;;;;12.83;100.00;102703.03;10441218;28;20139;-80
2023/05/19 00:23:31;;;;;;;0.10;0.10;;;;;;;13.13;100.00;102702.63;10455051;28;20053;-78
2023/05/19 00:28:33;;;;;;;0.88;0.20;;;;;;;13.05;100.00;102702.28;10437830;28;20067;-77
2023/05/19 00:33:34;;;;;;;0.20;0.13;;;;;;;13.02;100.00;102708.19;10425225;28;20404;-77
2023/05/19 00:38:36;;;;;;;0.63;0.10;;;;;;;12.65;100.00;102701.34;10459411;28;20041;-77
2023/05/19 00:43:38;;;;;;;0.90;0.30;;;;;;;12.55;100.00;102706.91;10440485;28;20496;-77
2023/05/19 00:48:40;;;;;;;0.70;0.32;;;;;;;12.59;100.00;102695.00;10440029;28;20064;-78
2023/05/19 00:53:47;;;;;;;0.10;0.10;;;;;;;12.74;100.00;102695.72;10441572;28;20554;-78
2023/05/19 00:58:50;;;;;;;0.10;0.10;;;;;;;12.63;100.00;102691.75;10424183;28;20044;-77
2023/05/19 01:03:52;;;;;;;0.00;0.00;;;;;;;12.86;100.00;102685.03;10441073;28;20103;-78
2023/05/19 01:08:57;;;;;;;0.28;0.22;;;;;;;12.87;100.00;102671.28;10420549;28;20053;-78
2023/05/19 01:13:59;;;;;;;0.00;0.00;;;;;;;12.50;100.00;102682.53;10444880;28;20056;-77
2023/05/19 01:19:24;;;;;;;0.10;0.10;;;;;;;12.45;100.00;102681.44;10424051;28;20495;-78
2023/05/19 01:24:48;;;;;;;0.10;0.10;;;;;;;12.25;100.00;102681.38;10428759;28;20045;-77
2023/05/19 01:30:18;;;;;;;0.20;0.15;;;;;;;12.59;100.00;102682.06;10420314;28;20053;-78
2023/05/19 01:35:24;;;;;;;0.10;0.10;;;;;;;12.38;100.00;102676.00;10401270;28;20048;-77
2023/05/19 01:40:27;;;;;;;0.25;0.17;;;;;;;12.48;100.00;102671.22;10438094;28;20503;-77
2023/05/19 01:45:32;;;;;;;0.17;0.17;;;;;;;12.37;100.00;102683.66;10439290;28;20127;-77
2023/05/19 01:50:34;;;;;;;0.28;0.28;;;;;;;12.59;100.00;102690.72;10438877;28;20037;-77
2023/05/19 01:55:49;;;;;;;0.88;0.65;;;;;;;12.65;100.00;102685.84;10444883;28;20049;-80
2023/05/19 02:01:01;;;;;;;0.05;0.05;;;;;;;12.47;100.00;102685.88;10436028;28;20040;-78
2023/05/19 02:06:43;;;;;;;0.10;0.10;;;;;;;12.61;100.00;102678.78;10425621;28;20045;-78
2023/05/19 02:11:54;;;;;;;0.00;0.00;;;;;;;12.97;100.00;102683.84;10432402;28;20049;-78
2023/05/19 02:16:57;;;;;;;0.53;0.30;;;;;;;12.49;100.00;102683.34;10436524;28;20057;-78
2023/05/19 02:21:58;;;;;;;0.32;0.17;;;;;;;12.18;100.00;102679.31;10435372;28;20053;-79
2023/05/19 02:27:00;;;;;;;0.38;0.20;;;;;;;12.23;100.00;102670.09;10433517;28;20563;-79
2023/05/19 02:32:02;;;;;;;0.60;0.20;;;;;;;12.06;100.00;102662.44;10440193;28;20033;-79
2023/05/19 02:37:03;;;;;;;0.17;0.17;;;;;;;12.12;100.00;102655.78;10433396;28;20107;-79
2023/05/19 02:42:05;;;;;;;0.00;0.00;;;;;;;11.90;100.00;102659.88;10436801;28;20068;-79
2023/05/19 02:47:07;;;;;;;1.05;0.20;;;;;;;12.06;100.00;102662.44;10421075;28;20462;-79
2023/05/19 02:52:12;;;;;;;0.10;0.10;;;;;;;11.96;100.00;102664.47;10438983;28;20419;-79
2023/05/19 02:57:13;;;;;;;0.60;0.60;;;;;;;12.28;100.00;102663.44;10401274;28;20051;-79
2023/05/19 03:02:15;;;;;;;0.20;0.20;;;;;;;12.26;100.00;102664.19;10420302;28;20055;-79
2023/05/19 03:07:17;;;;;;;0.00;0.00;;;;;;;12.20;100.00;102659.59;10436895;28;20079;-78
2023/05/19 03:12:19;;;;;;;0.20;0.20;;;;;;;12.12;100.00;102655.78;10425996;28;20038;-78
2023/05/19 03:17:20;;;;;;;0.22;0.10;;;;;;;12.23;100.00;102659.78;10421282;28;20136;-79
2023/05/19 03:22:22;;;;;;;0.32;0.15;;;;;;;12.18;100.00;102653.47;10412259;28;20072;-79
2023/05/19 03:27:23;;;;;;;0.30;0.10;;;;;;;11.96;100.00;102662.75;10439905;28;20048;-78
2023/05/19 03:32:28;;;;;;;0.08;0.00;;;;;;;12.24;100.00;102664.13;10437895;28;20036;-81
2023/05/19 03:37:31;;;;;;;0.73;0.45;;;;;;;11.99;100.00;102662.06;10420048;28;20041;-79
2023/05/19 03:42:33;;;;;;;0.10;0.10;;;;;;;12.22;100.00;102658.88;10418666;28;20471;-79
2023/05/19 03:47:35;;;;;;;2.28;0.77;;;;;;;12.08;100.00;102661.63;10434636;28;20503;-79
2023/05/19 03:52:47;;;;;;;0.00;0.00;;;;;;;12.16;100.00;102662.88;10434065;28;20136;-79
2023/05/19 03:58:01;;;;;;;0.63;0.40;;;;;;;12.41;100.00;102664.00;10434411;28;20131;-78
2023/05/19 04:03:03;;;;;;;0.22;0.22;;;;;;;12.18;100.00;102668.97;10440724;28;20455;-79
2023/05/19 04:08:05;;;;;;;0.32;0.10;;;;;;;12.34;100.00;102671.47;10432102;28;20049;-79
2023/05/19 04:13:06;;;;;;;0.10;0.10;;;;;;;12.72;100.00;102675.78;10417706;28;20045;-79
2023/05/19 04:18:08;;;;;;;0.00;0.00;;;;;;;12.48;100.00;102676.41;10433828;28;20550;-79
2023/05/19 04:23:09;;;;;;;0.90;0.40;;;;;;;12.17;100.00;102681.03;10429196;28;20475;-78
2023/05/19 04:28:11;;;;;;;0.10;0.10;;;;;;;12.73;100.00;102677.53;10433052;28;20049;-79
2023/05/19 04:33:13;;;;;;;0.73;0.70;;;;;;;12.60;100.00;102681.25;10445418;28;20037;-79
2023/05/19 04:38:17;;;;;;;0.30;0.15;;;;;;;12.98;100.00;102675.25;10432703;28;20045;-78
2023/05/19 04:43:22;;;;;;;0.57;0.22;;;;;;;13.10;100.00;102668.84;10418338;28;20562;-78
2023/05/19 04:48:24;;;;;;;0.00;0.00;;;;;;;13.07;100.00;102674.78;10430187;28;20496;-79
2023/05/19 04:53:30;;;;;;;0.22;0.10;;;;;;;13.14;100.00;102665.59;10427276;28;20512;-78
2023/05/19 04:58:33;;;;;;;0.00;0.00;;;;;;;13.09;100.00;102670.56;10432776;28;20072;-78
2023/05/19 05:03:36;;;;;;;0.20;0.20;;;;;;;13.40;100.00;102653.78;10456109;28;20110;-79
2023/05/19 05:08:40;;;;;;;1.38;0.30;;;;;;;13.89;100.00;102660.09;10445657;28;20037;-80
2023/05/19 05:13:45;;;;;;;0.43;0.43;;;;;;;14.02;100.00;102663.19;10425723;28;20132;-81
2023/05/19 05:18:47;;;;;;;0.15;0.10;;;;;;;13.63;100.00;102667.69;10433315;28;20037;-81
2023/05/19 05:23:50;;;;;;;0.52;0.32;;;;;;;14.21;100.00;102665.69;10436119;28;20102;-79
2023/05/19 05:28:54;;;;;;;0.43;0.10;;;;;;;14.13;100.00;102664.47;10432153;28;20069;-80
2023/05/19 05:33:56;;;;;;;0.30;0.30;;;;;;;14.56;100.00;102671.31;10455323;28;20067;-80
2023/05/19 05:39:02;;;;;;;0.30;0.20;;;;;;;14.26;100.00;102663.25;10433777;28;20045;-80
2023/05/19 05:44:05;;;;;;;0.25;0.25;;;;;;;14.54;100.00;102666.91;10439865;28;20457;-80
2023/05/19 05:49:07;;;;;;;0.63;0.55;;;;;;;15.21;100.00;102658.13;10439591;28;20080;-80
2023/05/19 05:54:11;;;;;;;0.00;0.00;;;;;;;14.24;100.00;102668.41;10418484;28;20049;-80
2023/05/19 05:59:17;;;;;;;0.17;0.10;;;;;;;14.99;100.00;102661.69;10422008;28;20045;-80
2023/05/19 06:04:19;;;;;;;0.50;0.50;;;;;;;14.80;100.00;102672.22;10422412;28;20051;-79
2023/05/19 06:09:21;;;;;;;0.20;0.20;;;;;;;14.82;100.00;102673.19;10441864;28;20041;-80
2023/05/19 06:14:24;;;;;;;0.38;0.28;;;;;;;15.73;100.00;102671.13;10439062;28;20137;-79
2023/05/19 06:19:46;;;;;;;0.17;0.17;;;;;;;14.74;100.00;102670.28;10454898;28;20091;-80
2023/05/19 06:24:49;;;;;;;0.10;0.10;;;;;;;15.43;100.00;102664.06;10430928;28;20401;-80
2023/05/19 06:29:52;;;;;;;0.57;0.43;;;;;;;15.95;100.00;102656.25;10451896;28;20091;-80
2023/05/19 06:34:55;;;;;;;0.20;0.20;;;;;;;15.90;100.00;102655.22;10441428;28;20045;-80
2023/05/19 06:39:56;;;;;;;0.10;0.10;;;;;;;15.73;100.00;102667.63;10422360;28;20041;-80
2023/05/19 06:44:58;;;;;;;0.25;0.22;;;;;;;16.06;100.00;102662.66;10456843;28;20052;-80
2023/05/19 06:50:01;;;;;;;0.52;0.25;;;;;;;16.69;100.00;102660.16;10444593;28;20049;-80
2023/05/19 06:55:07;;;;;;;2.38;0.50;;;;;;;16.74;100.00;102656.00;10431751;28;20048;-79
2023/05/19 07:00:11;;;;;;;1.10;0.13;;;;;;;17.08;100.00;102664.75;10438557;28;20033;-80
2023/05/19 07:05:21;;;;;;;1.23;0.55;;;;;;;18.02;100.00;102654.09;10438858;28;20041;-79
2023/05/19 07:10:28;;;;;;;0.10;0.10;;;;;;;18.59;100.00;102657.06;10447980;28;20069;-80
2023/05/19 07:15:30;;;;;;;0.20;0.20;;;;;;;18.80;100.00;102655.75;10443275;28;20427;-80
2023/05/19 07:20:32;;;;;;;0.38;0.28;;;;;;;18.71;100.00;102654.72;10441118;28;20103;-79
2023/05/19 07:25:35;;;;;;;0.08;0.08;;;;;;;19.34;98.27;102639.34;10462117;28;20407;-80
2023/05/19 07:30:37;;;;;;;0.47;0.30;;;;;;;20.76;91.62;102631.78;10462567;28;20037;-79
2023/05/19 07:35:39;;;;;;;0.20;0.20;;;;;;;20.99;95.21;102637.28;10457938;28;20033;-79
2023/05/19 07:40:41;;;;;;;0.30;0.28;;;;;;;21.50;92.35;102632.47;10440628;28;20468;-79
2023/05/19 07:45:43;;;;;;;0.38;0.30;;;;;;;20.86;91.79;102630.13;10432287;28;20067;-79
2023/05/19 07:50:48;;;;;;;0.47;0.20;;;;;;;21.41;89.61;102616.66;10433596;28;20404;-79
2023/05/19 07:55:52;;;;;;;0.70;0.40;;;;;;;21.40;84.24;102626.28;10439060;28;20396;-79
2023/05/19 08:00:57;;;;;;;0.00;0.00;;;;;;;23.15;83.71;102615.72;10405816;28;20045;-79
2023/05/19 08:05:59;;;;;;;0.45;0.30;;;;;;;20.89;84.57;102620.56;10406448;28;20045;-78
2023/05/19 08:11:05;;;;;;;11.25;0.90;;;;;;;22.07;78.02;102625.84;10427705;28;20400;-79
2023/05/19 08:16:07;;;;;;;0.25;0.25;;;;;;;21.94;78.52;102619.66;10441069;28;20094;-79
2023/05/19 08:21:11;;;;;;;0.00;0.00;;;;;;;22.09;78.93;102622.38;10438906;28;20045;-79
2023/05/19 08:26:12;;;;;;;0.10;0.10;;;;;;;21.53;79.56;102619.38;10430086;28;20049;-79
2023/05/19 08:31:17;;;;;;;0.38;0.25;;;;;;;23.39;76.91;102601.69;10435469;28;20041;-79
2023/05/19 08:36:18;;;;;;;0.00;0.00;;;;;;;23.82;67.44;102605.13;10441761;28;20075;-79
2023/05/19 08:41:22;;;;;;;1.00;0.10;;;;;;;23.47;70.91;102592.94;10444391;28;20049;-79
2023/05/19 08:46:24;;;;;;;0.20;0.20;;;;;;;22.49;66.05;102588.44;10445968;28;20511;-79
2023/05/19 08:51:28;;;;;;;0.47;0.17;;;;;;;22.58;70.11;102586.72;10457214;28;20048;-79
2023/05/19 08:56:31;;;;;;;0.28;0.17;;;;;;;22.37;66.60;102577.88;10456996;28;20131;-79
2023/05/19 09:01:33;;;;;;;0.28;0.20;;;;;;;23.09;66.39;102568.34;10444553;28;20055;-79
2023/05/19 09:06:35;;;;;;;0.13;0.13;;;;;;;23.55;63.79;102573.63;10464314;28;20072;-80
2023/05/19 09:11:36;;;;;;;0.10;0.10;;;;;;;22.84;59.99;102570.09;10462481;28;20485;-77
2023/05/19 09:16:39;;;;;;;0.10;0.00;;;;;;;23.88;66.06;102560.38;10444563;28;20486;-78
2023/05/19 09:21:40;;;;;;;0.85;0.10;;;;;;;24.84;59.23;102549.34;10461716;28;20048;-79
2023/05/19 09:26:42;;;;;;;1.00;0.22;;;;;;;23.34;58.50;102553.50;10442606;28;20056;-79
2023/05/19 09:31:59;;;;;;;0.20;0.13;;;;;;;23.54;63.08;102555.22;10444526;28;20495;-79
2023/05/19 09:37:01;;;;;;;0.50;0.20;;;;;;;25.11;56.45;102548.25;10443200;28;20503;-78
2023/05/19 09:42:04;;;;;;;0.45;0.10;;;;;;;25.14;57.97;102544.69;10439792;28;20041;-79
2023/05/19 09:47:08;;;;;;;0.17;0.10;;;;;;;25.07;59.83;102550.91;10456061;28;20041;-77
2023/05/19 09:52:14;;;;;;;0.38;0.20;;;;;;;22.84;60.55;102563.13;10449265;28;20135;-78
2023/05/19 09:57:16;;;;;;;0.08;0.08;;;;;;;24.93;59.61;102543.16;10433904;28;20040;-79
2023/05/19 10:02:20;;;;;;;0.00;0.00;;;;;;;25.78;55.69;102537.03;10435400;28;20064;-78
2023/05/19 10:07:23;;;;;;;5.78;0.17;;;;;;;24.97;56.70;102539.59;10441703;28;20411;-78
2023/05/19 10:12:25;;;;;;;2.25;0.90;;;;;;;23.72;55.67;102542.00;10426203;28;20488;-79
2023/05/19 10:17:27;;;;;;;0.10;0.10;;;;;;;23.06;57.95;102536.84;10443145;28;20045;-80
2023/05/19 10:22:29;;;;;;;0.80;0.32;;;;;;;23.86;57.34;102526.16;10440947;28;20045;-78
2023/05/19 10:27:34;;;;;;;0.68;0.43;;;;;;;25.17;55.90;102526.22;10440841;28;20506;-79
2023/05/19 10:32:38;;;;;;;0.43;0.35;;;;;;;25.77;55.02;102511.53;10450055;28;20396;-77
2023/05/19 10:37:57;;;;;;;0.10;0.10;;;;;;;26.70;54.10;102494.34;10424515;28;20500;-78
2023/05/19 10:43:30;;;;;;;0.65;0.35;;;;;;;26.56;57.27;102499.88;10413841;28;20136;-78
2023/05/19 10:48:35;;;;;;;0.30;0.30;;;;;;;25.63;54.03;102499.38;10454588;28;20037;-77
2023/05/19 10:53:40;;;;;;;0.10;0.00;;;;;;;24.94;50.08;102508.84;10430928;28;20504;-79
2023/05/19 10:58:42;;;;;;;0.00;0.00;;;;;;;25.43;49.60;102502.25;10434335;28;20048;-79
2023/05/19 11:03:48;;;;;;;0.10;0.10;;;;;;;25.41;52.24;102505.78;10440329;28;20051;-79
2023/05/19 11:09:09;;;;;;;1.23;0.30;;;;;;;26.78;55.63;102492.47;10438106;28;20134;-77
2023/05/19 11:14:13;;;;;;;1.75;0.47;;;;;;;25.65;50.03;102494.06;10438353;28;20051;-79
2023/05/19 11:19:27;;;;;;;0.20;0.20;;;;;;;26.72;53.10;102481.97;10455140;28;20036;-78
2023/05/19 11:24:36;;;;;;;0.20;0.20;;;;;;;27.02;51.98;102482.38;10441243;28;20252;-78
2023/05/19 11:29:38;;;;;;;0.05;0.05;;;;;;;26.45;53.25;102484.19;10439465;28;20041;-78
2023/05/19 11:34:43;;;;;;;0.05;0.05;;;;;;;24.18;54.22;102495.31;10431741;28;20048;-76
2023/05/19 11:39:46;;;;;;;0.10;0.10;;;;;;;25.62;53.70;102489.72;10454689;28;20043;-77
2023/05/19 11:44:47;;;;;;;0.30;0.20;;;;;;;27.29;56.86;102472.19;10432823;28;20053;-78
2023/05/19 11:49:53;;;;;;;1.17;0.63;;;;;;;25.21;52.73;102475.19;10436026;28;20048;-77
2023/05/19 11:55:00;;;;;;;0.43;0.30;;;;;;;23.09;57.66;102485.13;10435156;28;20045;-77
2023/05/19 12:00:07;;;;;;;0.95;0.10;;;;;;;24.82;52.12;102467.66;10452182;28;20110;-79
2023/05/19 12:05:17;;;;;;;0.08;0.08;;;;;;;23.97;51.70;102465.59;10436810;28;20055;-80
2023/05/19 12:10:24;;;;;;;0.03;0.03;;;;;;;25.94;51.11;102448.81;10433213;28;20583;-79
2023/05/19 12:15:25;;;;;;;0.00;0.00;;;;;;;26.85;52.96;102459.75;10418342;28;20045;-80
2023/05/19 12:20:34;;;;;;;0.08;0.03;;;;;;;25.98;54.22;102458.44;10457224;28;20436;-80
2023/05/19 12:25:37;;;;;;;0.10;0.00;;;;;;;26.69;52.12;102450.34;10445916;28;20492;-77
2023/05/19 12:30:40;;;;;;;0.20;0.00;;;;;;;27.67;47.59;102446.72;10437352;28;20041;-77
2023/05/19 12:35:42;;;;;;;0.00;0.00;;;;;;;28.10;55.08;102445.78;10456024;28;20566;-78
2023/05/19 12:40:43;;;;;;;0.00;0.00;;;;;;;28.36;50.39;102435.47;10437147;28;20049;-77
2023/05/19 12:45:45;;;;;;;0.20;0.20;;;;;;;25.87;50.85;102433.97;10459983;28;20037;-78
2023/05/19 12:50:48;;;;;;;1.55;0.40;;;;;;;23.31;55.44;102443.06;10443091;28;20037;-79
2023/05/19 12:55:51;;;;;;;0.45;0.20;;;;;;;23.66;53.98;102443.81;10448043;28;20053;-77
2023/05/19 13:00:58;;;;;;;0.20;0.20;;;;;;;25.17;49.51;102440.06;10461127;28;20503;-77
2023/05/19 13:06:00;;;;;;;0.08;0.08;;;;;;;24.67;51.37;102426.53;10428948;28;20055;-77
2023/05/19 13:11:02;;;;;;;0.40;0.32;;;;;;;26.36;51.84;102415.66;10442192;28;20045;-78
2023/05/19 13:16:04;;;;;;;0.30;0.10;;;;;;;26.24;44.71;102407.03;10459810;28;20048;-76
2023/05/19 13:21:05;;;;;;;0.00;0.00;;;;;;;26.92;51.98;102405.84;10441541;28;20045;-78
2023/05/19 13:26:07;;;;;;;0.00;0.00;;;;;;;26.73;50.43;102404.44;10440396;28;20060;-77
2023/05/19 13:31:09;;;;;;;0.00;0.00;;;;;;;25.75;51.30;102399.81;10459753;28;20036;-79
2023/05/19 13:36:11;;;;;;;0.10;0.10;;;;;;;25.95;49.29;102407.44;10455384;28;20151;-77
2023/05/19 13:41:12;;;;;;;0.22;0.15;;;;;;;24.75;48.80;102402.72;10457456;28;20040;-76
2023/05/19 13:46:16;;;;;;;0.00;0.00;;;;;;;25.13;49.21;102395.31;10423974;28;20385;-79
2023/05/19 13:51:22;;;;;;;1.13;0.90;;;;;;;25.77;55.58;102385.69;10438563;28;20496;-77
2023/05/19 13:56:25;;;;;;;0.08;0.08;;;;;;;25.13;46.81;102392.66;10437140;28;20067;-78
2023/05/19 14:01:27;;;;;;;0.82;0.20;;;;;;;23.82;48.79;102397.22;10440139;28;20045;-78
2023/05/19 14:06:29;;;;;;;1.65;1.45;;;;;;;25.19;49.86;102387.31;10430492;28;20508;-76
2023/05/19 14:11:31;;;;;;;0.13;0.13;;;;;;;25.42;49.09;102383.56;10420450;28;20052;-77
2023/05/19 14:16:32;;;;;;;0.10;0.10;;;;;;;24.38;50.15;102388.09;10438454;28;20063;-78
2023/05/19 14:21:35;;;;;;;0.90;0.43;;;;;;;25.90;50.48;102377.59;10440554;28;20044;-76
2023/05/19 14:26:40;;;;;;;0.68;0.10;;;;;;;24.67;48.57;102373.81;10424700;28;20045;-76
2023/05/19 14:31:42;;;;;;;0.95;0.60;;;;;;;25.64;51.08;102361.25;10441375;28;20119;-76
2023/05/19 14:36:50;;;;;;;0.00;0.00;;;;;;;24.98;48.05;102368.19;10440367;28;20049;-77
2023/05/19 14:41:52;;;;;;;0.00;0.00;;;;;;;24.34;45.42;102373.19;10436296;28;20045;-77
2023/05/19 14:46:54;;;;;;;0.10;0.10;;;;;;;25.09;46.79;102354.03;10431417;28;20053;-76
2023/05/19 14:51:56;;;;;;;0.10;0.10;;;;;;;25.10;49.75;102356.63;10438802;28;20049;-77
2023/05/19 14:56:57;;;;;;;0.20;0.20;;;;;;;26.23;50.10;102355.09;10457446;28;20135;-76
2023/05/19 15:01:59;;;;;;;0.10;0.10;;;;;;;24.95;46.45;102357.69;10453950;28;20064;-78
2023/05/19 15:07:01;;;;;;;0.38;0.30;;;;;;;26.32;48.28;102346.13;10429678;28;20064;-77
2023/05/19 15:12:05;;;;;;;0.15;0.15;;;;;;;25.35;48.56;102341.38;10454263;28;20392;-76
2023/05/19 15:17:07;;;;;;;0.10;0.03;;;;;;;23.77;46.13;102350.78;10440372;28;20049;-75
2023/05/19 15:22:08;;;;;;;0.10;0.10;;;;;;;26.33;50.71;102326.75;10446381;28;20045;-78
2023/05/19 15:27:10;;;;;;;0.20;0.10;;;;;;;25.76;47.67;102335.56;10447593;28;20045;-78
2023/05/19 15:32:12;;;;;;;0.00;0.00;;;;;;;23.68;47.54;102348.19;10437136;28;20048;-79
2023/05/19 15:37:14;;;;;;;0.00;0.00;;;;;;;25.32;50.60;102333.50;10456071;28;20048;-78
2023/05/19 15:42:15;;;;;;;0.40;0.25;;;;;;;23.58;47.65;102355.28;10455949;28;20419;-77
2023/05/19 15:47:17;;;;;;;0.03;0.03;;;;;;;24.48;48.83;102348.47;10438079;28;20511;-77
2023/05/19 15:52:19;;;;;;;0.20;0.10;;;;;;;24.04;47.54;102338.34;10415148;28;20377;-76
2023/05/19 15:57:20;;;;;;;0.38;0.17;;;;;;;25.06;47.60;102328.56;10424173;28;20447;-75
2023/05/19 16:02:22;;;;;;;0.13;0.13;;;;;;;24.20;48.13;102336.44;10429276;28;20050;-78
2023/05/19 16:07:23;;;;;;;0.13;0.05;;;;;;;24.46;46.18;102331.84;10432735;28;20045;-77
2023/05/19 16:12:26;;;;;;;0.10;0.08;;;;;;;24.24;46.99;102330.28;10415001;28;20492;-77
2023/05/19 16:17:28;;;;;;;0.05;0.05;;;;;;;24.97;49.06;102326.94;10405653;28;20053;-76
2023/05/19 16:22:29;;;;;;;1.40;0.25;;;;;;;24.98;45.82;102326.00;10454361;28;20499;-76
2023/05/19 16:27:31;;;;;;;0.00;0.00;;;;;;;25.31;47.16;102318.56;10429591;28;20061;-77
2023/05/19 16:32:33;;;;;;;0.00;0.00;;;;;;;24.86;47.67;102320.91;10450964;28;20392;-76
2023/05/19 16:37:34;;;;;;;0.10;0.10;;;;;;;24.32;46.40;102322.28;10435605;28;20045;-77
2023/05/19 16:42:36;;;;;;;0.10;0.08;;;;;;;24.65;47.53;102316.69;10412530;28;20488;-77
2023/05/19 16:47:37;;;;;;;0.22;0.22;;;;;;;24.75;47.03;102323.66;10448434;28;20439;-77
2023/05/19 16:52:39;;;;;;;0.10;0.10;;;;;;;24.90;47.19;102309.44;10420376;28;21029;-75
2023/05/19 16:57:41;;;;;;;0.10;0.00;;;;;;;24.37;47.15;102317.88;10449886;28;20111;-76
2023/05/19 17:02:43;;;;;;;0.20;0.10;;;;;;;23.73;48.06;102319.22;10455849;28;20040;-76
2023/05/19 17:07:44;;;;;;;0.17;0.17;;;;;;;24.21;47.78;102309.22;10424027;28;20045;-76
2023/05/19 17:12:46;;;;;;;0.50;0.28;;;;;;;25.08;48.05;102304.81;10442359;28;20075;-76
2023/05/19 17:17:48;;;;;;;0.00;0.00;;;;;;;24.20;47.07;102322.41;10432567;28;20045;-77
2023/05/19 17:22:49;;;;;;;0.00;0.00;;;;;;;24.43;47.59;102321.31;10430400;28;20048;-76
2023/05/19 17:27:51;;;;;;;0.10;0.10;;;;;;;23.92;46.36;102326.09;10433429;28;20135;-76
2023/05/19 17:32:53;;;;;;;0.20;0.10;;;;;;;24.39;47.49;102321.34;10427964;28;20052;-78
2023/05/19 17:37:54;;;;;;;0.17;0.10;;;;;;;24.06;46.88;102323.41;10431473;28;20111;-77
2023/05/19 17:42:56;;;;;;;0.05;0.03;;;;;;;23.51;46.31;102332.53;10440862;28;20396;-77
2023/05/19 17:47:58;;;;;;;0.00;0.00;;;;;;;23.07;47.72;102325.69;10459918;28;20131;-75
2023/05/19 17:53:00;;;;;;;0.00;0.00;;;;;;;23.10;49.54;102334.44;10437027;28;20040;-77
2023/05/19 17:58:02;;;;;;;1.38;1.02;;;;;;;23.05;49.57;102333.56;10459023;28;20122;-77
2023/05/19 18:03:04;;;;;;;0.00;0.00;;;;;;;23.55;49.87;102321.09;10444915;28;20049;-76
2023/05/19 18:08:08;;;;;;;0.10;0.10;;;;;;;22.73;50.97;102328.41;10457058;28;20069;-76
2023/05/19 18:13:12;;;;;;;0.47;0.30;;;;;;;22.40;49.22;102341.59;10439694;28;20037;-77
2023/05/19 18:18:15;;;;;;;0.17;0.03;;;;;;;22.32;51.04;102332.78;10443998;28;20132;-76
2023/05/19 18:23:16;;;;;;;0.52;0.52;;;;;;;22.16;50.62;102332.78;10414606;28;20436;-77
2023/05/19 18:28:20;;;;;;;0.00;0.00;;;;;;;22.00;50.20;102336.31;10455937;28;20044;-77
2023/05/19 18:33:21;;;;;;;0.00;0.00;;;;;;;21.98;50.89;102338.06;10420147;28;20038;-77
2023/05/19 18:38:26;;;;;;;0.00;0.00;;;;;;;22.03;51.53;102336.28;10443962;28;20052;-76
2023/05/19 18:43:28;;;;;;;0.05;0.05;;;;;;;21.90;51.36;102342.41;10457737;28;20036;-76
2023/05/19 18:48:31;;;;;;;0.08;0.08;;;;;;;22.02;53.07;102345.03;10444103;28;20743;-78
2023/05/19 18:53:34;;;;;;;0.00;0.00;;;;;;;21.64;52.26;102345.84;10457804;28;20107;-78
2023/05/19 18:58:36;;;;;;;0.00;0.00;;;;;;;21.38;52.72;102352.72;10456887;28;20049;-77
2023/05/19 19:03:37;;;;;;;0.00;0.00;;;;;;;21.38;52.26;102351.84;10442581;28;20029;-77
2023/05/19 19:08:39;;;;;;;0.10;0.03;;;;;;;21.16;53.45;102364.88;10435228;28;20072;-75
2023/05/19 19:13:40;;;;;;;0.05;0.05;;;;;;;20.97;54.62;102373.47;10422327;28;20052;-78
2023/05/19 19:18:42;;;;;;;0.25;0.17;;;;;;;20.82;55.23;102375.13;10456144;28;20048;-77
2023/05/19 19:23:44;;;;;;;0.20;0.00;;;;;;;20.63;55.11;102383.72;10455276;28;20043;-76
2023/05/19 19:28:46;;;;;;;0.00;0.00;;;;;;;20.55;56.66;102389.75;10455432;28;20044;-77
2023/05/19 19:33:48;;;;;;;0.00;0.00;;;;;;;20.57;55.02;102387.16;10442582;28;20485;-78
2023/05/19 19:38:49;;;;;;;0.00;0.00;;;;;;;20.35;57.11;102389.59;10438684;28;20044;-78
2023/05/19 19:43:52;;;;;;;0.00;0.00;;;;;;;20.41;57.80;102396.63;10418619;28;20098;-77
2023/05/19 19:48:56;;;;;;;0.10;0.10;;;;;;;20.18;58.67;102405.16;10437416;28;20040;-77
2023/05/19 19:53:58;;;;;;;0.03;0.03;;;;;;;20.02;62.30;102418.94;10455309;28;20485;-78
2023/05/19 19:59:00;;;;;;;0.10;0.05;;;;;;;19.54;64.03;102416.63;10452353;28;20515;-77
2023/05/19 20:04:02;;;;;;;0.00;0.00;;;;;;;19.71;63.94;102423.75;10454123;28;20382;-77
2023/05/19 20:09:04;;;;;;;0.10;0.10;;;;;;;19.59;63.68;102420.16;10429075;28;20045;-77
2023/05/19 20:14:06;;;;;;;0.15;0.00;;;;;;;19.17;64.99;102421.34;10423737;28;20045;-78
2023/05/19 20:19:08;;;;;;;0.00;0.00;;;;;;;19.22;65.34;102430.13;10452447;28;20048;-78
2023/05/19 20:24:10;;;;;;;0.00;0.00;;;;;;;19.23;66.68;102429.25;10436182;28;20037;-77
2023/05/19 20:29:11;;;;;;;0.10;0.10;;;;;;;19.06;65.63;102429.03;10441451;28;20048;-78
2023/05/19 20:34:13;;;;;;;0.00;0.00;;;;;;;19.07;65.89;102427.28;10459337;28;20045;-77
2023/05/19 20:39:14;;;;;;;0.00;0.00;;;;;;;19.27;66.04;102418.00;10444605;28;20071;-77
2023/05/19 20:44:16;;;;;;;0.00;0.00;;;;;;;18.74;67.24;102433.69;10445838;28;20536;-77
2023/05/19 20:49:18;;;;;;;0.00;0.00;;;;;;;18.69;66.96;102424.06;10444529;28;20049;-77
2023/05/19 20:54:20;;;;;;;0.28;0.05;;;;;;;18.79;67.73;102424.22;10437545;28;20052;-77
2023/05/19 20:59:21;;;;;;;0.00;0.00;;;;;;;18.55;69.19;102426.44;10447368;28;20053;-77
2023/05/19 21:04:23;;;;;;;0.10;0.03;;;;;;;18.48;70.46;102436.75;10442941;28;20045;-77
2023/05/19 21:09:25;;;;;;;0.00;0.00;;;;;;;18.38;71.74;102436.56;10442340;28;20546;-76
2023/05/19 21:14:27;;;;;;;0.38;0.10;;;;;;;18.10;72.99;102442.13;10459554;28;20045;-76
2023/05/19 21:19:29;;;;;;;0.75;0.30;;;;;;;18.07;74.56;102442.97;10461797;28;20044;-77
2023/05/19 21:24:30;;;;;;;2.08;0.25;;;;;;;18.22;77.63;102452.78;10427111;28;20497;-77
2023/05/19 21:29:32;;;;;;;0.00;0.00;;;;;;;18.47;79.03;102453.25;10439785;28;20036;-77
2023/05/19 21:34:33;;;;;;;0.00;0.00;;;;;;;18.43;81.39;102449.72;10435030;28;21269;-75
2023/05/19 21:39:35;;;;;;;0.35;0.30;;;;;;;18.16;84.46;102443.16;10457461;28;20041;-77
2023/05/19 21:44:36;;;;;;;0.40;0.40;;;;;;;18.04;85.91;102453.31;10422644;28;20510;-78
2023/05/19 21:49:39;;;;;;;0.00;0.00;;;;;;;18.15;87.57;102450.91;10435305;28;20040;-77
2023/05/19 21:54:41;;;;;;;0.43;0.43;;;;;;;18.36;87.74;102456.53;10419265;28;20140;-78
2023/05/19 21:59:43;;;;;;;0.00;0.00;;;;;;;18.13;90.63;102457.84;10444462;28;20500;-77
2023/05/19 22:04:45;;;;;;;0.20;0.20;;;;;;;17.98;91.76;102453.22;10435673;28;20047;-77
2023/05/19 22:09:46;;;;;;;0.00;0.00;;;;;;;17.85;93.17;102447.72;10438485;28;20036;-76
2023/05/19 22:14:49;;;;;;;4.95;0.55;;;;;;;17.82;93.88;102446.78;10434852;28;20412;-77
2023/05/19 22:19:51;;;;;;;0.10;0.10;;;;;;;17.71;95.09;102449.16;10421129;28;20059;-78
2023/05/19 22:24:52;;;;;;;0.10;0.10;;;;;;;17.75;95.65;102449.28;10430863;28;20496;-78
2023/05/19 22:29:54;;;;;;;0.28;0.13;;;;;;;17.70;96.14;102452.63;10429509;28;20079;-80
2023/05/19 22:34:56;;;;;;;0.90;0.65;;;;;;;17.63;96.31;102455.94;10445910;28;20123;-80
2023/05/19 22:39:57;;;;;;;0.00;0.00;;;;;;;17.63;96.00;102446.38;10426994;28;20037;-81
2023/05/19 22:44:59;;;;;;;0.28;0.28;;;;;;;17.63;96.17;102450.72;10427795;28;20048;-80
2023/05/19 22:50:01;;;;;;;0.68;0.30;;;;;;;17.80;95.20;102453.69;10434403;28;20434;-80
2023/05/19 22:55:03;;;;;;;0.65;0.40;;;;;;;17.43;97.30;102457.25;10441182;28;20140;-80
2023/05/19 23:00:05;;;;;;;2.40;0.32;;;;;;;17.48;97.67;102453.88;10434524;28;20056;-80
2023/05/19 23:05:07;;;;;;;2.17;0.55;;;;;;;17.65;96.78;102455.13;10451873;28;20120;-80
2023/05/19 23:10:12;;;;;;;1.13;0.47;;;;;;;17.40;99.28;102449.38;10433087;28;20056;-79